This is the latest recevied weather packets stored in our database for station/object N0NAI-13. If no packets are shown the sender has not sent any weather packets the latest 10 day(s).
| Time | Temp. | Humidity | Pressure | Rain* | Wind** | Luminosity | Snow |
|---|---|---|---|---|---|---|---|
| 1777508124 | 12.78° C | 46% | 1018.6 hPa | 0 mm | - | - | - |
| 1777507520 | 12.22° C | 46% | 1018.6 hPa | 0 mm | - | - | - |
| 1777506916 | 11.67° C | 46% | 1018.6 hPa | 0 mm | - | - | - |
| 1777506324 | 11.67° C | 45% | 1018.8 hPa | 0 mm | - | - | - |
| 1777505727 | 12.22° C | 44% | 1018.7 hPa | 0 mm | - | - | - |
| 1777505130 | 12.78° C | 42% | 1018.6 hPa | 0 mm | - | - | - |
| 1777504533 | 13.33° C | 42% | 1018.8 hPa | 0 mm | - | - | - |
| 1777503918 | 13.33° C | 40% | 1018.6 hPa | 0 mm | - | - | - |
| 1777503321 | 13.33° C | 41% | 1018.8 hPa | 0 mm | - | - | - |
| 1777502724 | 13.33° C | 41% | 1018.8 hPa | 0 mm | - | - | - |
| 1777502127 | 13.33° C | 39% | 1018.8 hPa | 0 mm | - | - | - |
| 1777501530 | 14.44° C | 37% | 1018.8 hPa | 0 mm | - | - | - |
| 1777500915 | 15.56° C | 37% | 1018.6 hPa | 0 mm | - | - | - |
| 1777500318 | 15.56° C | 36% | 1018.6 hPa | 0 mm | - | - | - |
| 1777499721 | 14.44° C | 38% | 1018.9 hPa | 0 mm | - | - | - |
| 1777499124 | 14.44° C | 37% | 1018.9 hPa | 0 mm | - | - | - |
| 1777498527 | 15.56° C | 36% | 1018.9 hPa | 0 mm | - | - | - |
| 1777497930 | 15° C | 37% | 1018.9 hPa | 0 mm | - | - | - |
| 1777497327 | 15.56° C | 38% | 1019 hPa | 0 mm | - | - | - |
| 1777496718 | 15° C | 39% | 1019.1 hPa | 0 mm | - | - | - |
| 1777496121 | 13.89° C | 39% | 1019.4 hPa | 0 mm | - | - | - |
| 1777495518 | 15° C | 38% | 1019.4 hPa | 0 mm | - | - | - |
| 1777494915 | 15° C | 38% | 1019.4 hPa | 0 mm | - | - | - |
| 1777494330 | 13.89° C | 39% | 1019.5 hPa | 0 mm | - | - | - |
| 1777493715 | 14.44° C | 39% | 1019.5 hPa | 0 mm | - | - | - |
* Rain latest hour (hover to see other rain measurements)
** Current wind speed in m/s (hover to see current wind gust speed)